Time;durP1;ratioP1;P1;durP2;ratioP2;P2;SDS_P1;SDS_P2;PMS_P1;PMS_P2;Temp;Humidity;BMP_temperature;BMP_pressure;BME280_temperature;BME280_humidity;BME280_pressure;Samples;Min_cycle;Max_cycle;Signal;HPM_P1;HPM_P2
2021/01/05 00:02:09;;;;;;;14.60;10.13;;;2.40;80.30;;;;;;5040014;28;20212;-90
2021/01/05 00:04:35;;;;;;;15.73;11.20;;;2.40;80.80;;;;;;5041901;28;20271;-90
2021/01/05 00:07:03;;;;;;;14.53;11.40;;;2.40;80.00;;;;;;5040262;28;20259;-91
2021/01/05 00:09:28;;;;;;;14.70;10.90;;;2.40;80.20;;;;;;5040389;28;20191;-90
2021/01/05 00:11:59;;;;;;;15.67;10.60;;;2.40;80.70;;;;;;5038906;28;20899;-90
2021/01/05 00:14:25;;;;;;;13.17;11.00;;;2.50;80.30;;;;;;5038035;28;20192;-91
2021/01/05 00:16:50;;;;;;;15.27;10.67;;;2.40;80.80;;;;;;5020558;28;20189;-91
2021/01/05 00:19:16;;;;;;;16.20;10.93;;;2.50;80.50;;;;;;5039153;28;20339;-90
2021/01/05 00:21:42;;;;;;;16.93;11.60;;;2.50;80.70;;;;;;5036977;28;20275;-90
2021/01/05 00:24:08;;;;;;;14.83;11.20;;;2.40;81.00;;;;;;5040764;28;20196;-89
2021/01/05 00:26:37;;;;;;;15.10;11.00;;;2.50;81.20;;;;;;5039117;28;20706;-90
2021/01/05 00:29:05;;;;;;;15.30;11.20;;;2.50;80.70;;;;;;5023696;28;20177;-90
2021/01/05 00:31:31;;;;;;;15.23;11.33;;;2.50;81.20;;;;;;5041408;28;20200;-90
2021/01/05 00:33:57;;;;;;;14.60;11.40;;;2.50;81.60;;;;;;5041615;28;20173;-90
2021/01/05 00:36:23;;;;;;;14.43;11.47;;;2.60;81.00;;;;;;5041647;28;20205;-90
2021/01/05 00:38:49;;;;;;;14.17;11.23;;;2.50;81.40;;;;;;5042398;28;20201;-90
2021/01/05 00:41:14;;;;;;;15.10;10.77;;;2.50;82.10;;;;;;5041836;28;20212;-90
2021/01/05 00:43:40;;;;;;;17.80;11.60;;;2.40;82.10;;;;;;5042870;28;20228;-90
2021/01/05 00:46:08;;;;;;;14.97;11.67;;;2.50;82.20;;;;;;5042950;28;20205;-90
2021/01/05 00:48:34;;;;;;;15.33;12.43;;;2.40;82.20;;;;;;5042737;28;20256;-89
2021/01/05 00:50:59;;;;;;;14.83;11.23;;;2.40;82.00;;;;;;5038223;28;20248;-90
2021/01/05 00:53:25;;;;;;;14.90;10.33;;;2.50;82.30;;;;;;5023686;28;20188;-90
2021/01/05 00:55:51;;;;;;;15.20;11.43;;;2.40;82.90;;;;;;5021610;28;20213;-90
2021/01/05 00:58:17;;;;;;;15.80;12.00;;;2.50;82.30;;;;;;5021613;28;20220;-90
2021/01/05 01:00:43;;;;;;;14.93;11.13;;;2.40;83.20;;;;;;5034077;28;20211;-90
2021/01/05 01:03:08;;;;;;;17.27;12.63;;;2.50;82.60;;;;;;5002405;28;20185;-91
2021/01/05 01:05:34;;;;;;;16.17;11.80;;;2.60;82.70;;;;;;5002384;28;20190;-90
2021/01/05 01:08:00;;;;;;;16.80;11.67;;;2.60;83.10;;;;;;5033562;28;20210;-90
2021/01/05 01:10:25;;;;;;;15.40;11.83;;;2.60;83.00;;;;;;5018775;28;20225;-90
2021/01/05 01:12:51;;;;;;;16.10;11.60;;;2.70;82.00;;;;;;5021696;28;20182;-90
2021/01/05 01:15:17;;;;;;;15.97;12.30;;;2.70;82.20;;;;;;5025155;28;20186;-89
2021/01/05 01:17:42;;;;;;;17.13;11.87;;;2.60;82.30;;;;;;5025398;28;20235;-89
2021/01/05 01:20:09;;;;;;;17.23;12.40;;;2.60;82.90;;;;;;5041766;28;20217;-89
2021/01/05 01:22:34;;;;;;;16.83;13.07;;;2.60;83.00;;;;;;5024886;28;20202;-90
2021/01/05 01:25:01;;;;;;;14.30;12.10;;;2.60;82.70;;;;;;5025170;28;20271;-90
2021/01/05 01:27:26;;;;;;;17.57;12.13;;;2.60;82.80;;;;;;5024823;28;20205;-90
2021/01/05 01:29:52;;;;;;;13.97;11.93;;;2.50;83.40;;;;;;5040668;28;20186;-90
2021/01/05 01:32:18;;;;;;;16.70;12.80;;;2.60;83.40;;;;;;5024806;28;20200;-90
2021/01/05 01:34:44;;;;;;;17.43;13.70;;;2.60;82.90;;;;;;5025363;28;20273;-90
2021/01/05 01:37:13;;;;;;;16.47;12.37;;;2.70;83.40;;;;;;5024544;28;20668;-90
2021/01/05 01:39:41;;;;;;;16.00;12.70;;;2.60;83.10;;;;;;5024375;28;20224;-89
2021/01/05 01:42:08;;;;;;;19.00;13.37;;;2.60;83.50;;;;;;5024736;28;20193;-89
2021/01/05 01:44:37;;;;;;;20.07;13.37;;;2.60;83.30;;;;;;5024745;28;20200;-90
2021/01/05 01:47:18;;;;;;;16.90;13.30;;;2.60;83.80;;;;;;5024033;28;20240;-90
2021/01/05 01:49:53;;;;;;;15.80;11.97;;;2.60;83.70;;;;;;5039282;28;20184;-90
2021/01/05 01:52:31;;;;;;;18.47;14.00;;;2.60;84.40;;;;;;5024255;28;20226;-90
2021/01/05 01:55:27;;;;;;;17.20;13.00;;;2.80;82.90;;;;;;5024943;28;20180;-90
2021/01/05 01:58:08;;;;;;;15.27;12.33;;;2.70;83.30;;;;;;5024079;28;20192;-90
2021/01/05 02:00:53;;;;;;;17.43;13.17;;;2.70;83.60;;;;;;5023886;28;20644;-89
2021/01/05 02:03:32;;;;;;;18.33;13.27;;;2.80;82.90;;;;;;5023014;28;20190;-89
2021/01/05 02:06:20;;;;;;;16.87;13.40;;;2.70;83.20;;;;;;5024065;28;20173;-89
2021/01/05 02:09:01;;;;;;;18.23;13.63;;;2.70;83.60;;;;;;5024365;28;20185;-89
2021/01/05 02:12:03;;;;;;;18.03;13.77;;;2.80;84.20;;;;;;5039517;28;20628;-90
2021/01/05 02:15:06;;;;;;;18.23;13.70;;;2.80;83.30;;;;;;5038810;28;20518;-90
2021/01/05 02:17:56;;;;;;;15.30;12.80;;;2.80;83.10;;;;;;5038725;28;20319;-89
2021/01/05 02:20:42;;;;;;;17.53;13.20;;;2.70;84.10;;;;;;5023696;28;20679;-89
2021/01/05 02:23:44;;;;;;;16.37;12.17;;;2.60;85.00;;;;;;5022576;28;20177;-90
2021/01/05 02:26:26;;;;;;;17.97;14.23;;;2.60;85.00;;;;;;5023288;28;20523;-89
2021/01/05 02:28:57;;;;;;;19.13;14.07;;;2.70;84.30;;;;;;5023137;28;20174;-89
2021/01/05 02:31:41;;;;;;;18.67;14.53;;;2.70;84.00;;;;;;5023400;28;20217;-89
2021/01/05 02:34:19;;;;;;;18.67;14.20;;;2.70;83.90;;;;;;5022836;28;20308;-89
2021/01/05 02:37:19;;;;;;;17.77;13.53;;;2.80;83.50;;;;;;5019979;28;20174;-90
2021/01/05 02:39:47;;;;;;;19.27;13.53;;;2.80;83.40;;;;;;5019712;28;20209;-90
2021/01/05 02:42:50;;;;;;;18.53;14.20;;;2.70;84.10;;;;;;5020600;28;20189;-89
2021/01/05 02:45:24;;;;;;;17.37;12.90;;;2.80;83.90;;;;;;5020408;28;20293;-89
2021/01/05 02:48:15;;;;;;;17.60;14.27;;;2.80;83.60;;;;;;5019538;28;20220;-89
2021/01/05 02:50:53;;;;;;;17.90;13.50;;;2.80;83.90;;;;;;5036538;28;20232;-89
2021/01/05 02:53:40;;;;;;;16.83;14.00;;;2.80;83.80;;;;;;5021163;28;20188;-89
2021/01/05 02:56:45;;;;;;;17.07;14.30;;;2.80;83.40;;;;;;5020453;28;20616;-90
2021/01/05 02:59:13;;;;;;;19.97;14.50;;;2.80;84.00;;;;;;5020349;28;20173;-90
2021/01/05 03:01:53;;;;;;;19.07;14.33;;;2.70;84.30;;;;;;5035177;28;20208;-89
2021/01/05 03:04:18;;;;;;;19.37;13.27;;;2.80;84.00;;;;;;5034955;28;20205;-90
2021/01/05 03:06:57;;;;;;;17.97;13.97;;;2.80;84.90;;;;;;5020093;28;20216;-89
2021/01/05 03:09:41;;;;;;;16.70;13.93;;;2.80;84.90;;;;;;5035118;28;20182;-90
2021/01/05 03:12:07;;;;;;;17.40;13.10;;;2.90;84.30;;;;;;5020197;28;20181;-89
2021/01/05 03:14:44;;;;;;;17.37;14.20;;;2.90;84.40;;;;;;5020273;28;20540;-90
2021/01/05 03:17:31;;;;;;;16.83;12.83;;;2.90;84.30;;;;;;5020464;28;20161;-89
2021/01/05 03:20:12;;;;;;;16.67;13.70;;;2.90;84.60;;;;;;5034803;28;20268;-90
2021/01/05 03:22:48;;;;;;;16.47;12.93;;;3.00;84.40;;;;;;5000514;28;20158;-89
2021/01/05 03:25:15;;;;;;;15.70;13.17;;;3.00;85.00;;;;;;5000593;28;20167;-90
2021/01/05 03:27:41;;;;;;;17.83;14.33;;;2.80;85.20;;;;;;5015415;28;20241;-89
2021/01/05 03:30:11;;;;;;;16.63;13.73;;;2.90;85.10;;;;;;5000036;28;20207;-90
2021/01/05 03:32:37;;;;;;;16.70;12.90;;;3.00;84.80;;;;;;5015227;28;20174;-89
2021/01/05 03:35:04;;;;;;;14.87;12.40;;;3.00;85.20;;;;;;5000385;28;20233;-90
2021/01/05 03:37:29;;;;;;;16.90;14.30;;;3.00;85.20;;;;;;5015010;28;20190;-90
2021/01/05 03:39:55;;;;;;;16.17;13.27;;;2.90;85.50;;;;;;5015611;28;20214;-89
2021/01/05 03:42:20;;;;;;;17.20;13.40;;;2.90;85.50;;;;;;4999110;28;20182;-89
2021/01/05 03:44:46;;;;;;;16.80;13.00;;;3.00;85.40;;;;;;5000634;28;20196;-89
2021/01/05 03:47:12;;;;;;;15.30;12.83;;;3.00;85.00;;;;;;5015958;28;20210;-89
2021/01/05 03:49:38;;;;;;;16.07;12.57;;;3.00;85.60;;;;;;5036091;28;20182;-89
2021/01/05 03:52:03;;;;;;;16.73;12.70;;;3.00;85.60;;;;;;5038389;28;20220;-89
2021/01/05 03:54:29;;;;;;;16.20;13.33;;;2.90;86.40;;;;;;5039874;28;20260;-89
2021/01/05 03:56:54;;;;;;;14.87;11.97;;;2.90;86.40;;;;;;5040748;28;20208;-90
2021/01/05 03:59:20;;;;;;;16.40;13.40;;;2.90;86.70;;;;;;5040817;28;20232;-90
2021/01/05 04:01:53;;;;;;;16.70;12.57;;;3.00;86.10;;;;;;5022960;28;20222;-89
2021/01/05 04:04:19;;;;;;;18.30;13.03;;;3.00;86.30;;;;;;5006629;28;20266;-89
2021/01/05 04:06:45;;;;;;;14.57;12.27;;;3.00;86.00;;;;;;5024796;28;20219;-90
2021/01/05 04:09:10;;;;;;;13.07;11.00;;;3.10;86.00;;;;;;5043188;28;20181;-90
2021/01/05 04:11:36;;;;;;;13.20;11.20;;;3.10;86.20;;;;;;5008837;28;20201;-90
2021/01/05 04:14:03;;;;;;;15.87;12.23;;;3.10;86.00;;;;;;5042691;28;20177;-89
2021/01/05 04:16:31;;;;;;;15.60;11.70;;;3.10;86.10;;;;;;5025428;28;20215;-89
2021/01/05 04:18:57;;;;;;;14.37;11.17;;;3.10;86.40;;;;;;5025645;28;20192;-89
2021/01/05 04:21:23;;;;;;;13.97;11.60;;;3.00;86.30;;;;;;5041829;28;20205;-89
2021/01/05 04:23:48;;;;;;;13.53;10.87;;;3.00;87.00;;;;;;5042743;28;20185;-89
2021/01/05 04:26:14;;;;;;;16.30;12.07;;;3.00;87.00;;;;;;5024940;28;20212;-89
2021/01/05 04:28:40;;;;;;;14.90;11.33;;;3.00;87.50;;;;;;5025409;28;20189;-87
2021/01/05 04:31:05;;;;;;;16.57;12.50;;;3.00;87.00;;;;;;5041034;28;20219;-89
2021/01/05 04:33:31;;;;;;;13.63;11.57;;;3.10;86.90;;;;;;5025253;28;20244;-89
2021/01/05 04:35:57;;;;;;;14.67;11.13;;;3.00;87.10;;;;;;5024528;28;20184;-89
2021/01/05 04:38:23;;;;;;;15.40;12.57;;;3.10;87.20;;;;;;5041884;28;20189;-88
2021/01/05 04:40:51;;;;;;;13.73;12.33;;;3.00;87.60;;;;;;5041869;28;20205;-89
2021/01/05 04:43:33;;;;;;;14.23;11.43;;;3.00;87.20;;;;;;5024803;28;20185;-90
2021/01/05 04:46:15;;;;;;;14.87;11.50;;;3.00;87.30;;;;;;5041064;28;20173;-89
2021/01/05 04:48:47;;;;;;;14.83;11.10;;;3.20;87.30;;;;;;5044552;28;20185;-89
2021/01/05 04:51:34;;;;;;;12.40;10.63;;;3.10;87.10;;;;;;5045963;28;20209;-89
2021/01/05 04:54:03;;;;;;;15.20;11.50;;;3.00;87.90;;;;;;5038351;28;20221;-89
2021/01/05 04:56:50;;;;;;;16.43;12.13;;;3.10;87.80;;;;;;5026826;28;20190;-89
2021/01/05 04:59:17;;;;;;;15.90;11.80;;;3.20;87.30;;;;;;5040889;28;20199;-89
2021/01/05 05:01:43;;;;;;;13.40;10.83;;;3.20;87.60;;;;;;5045384;28;20209;-89
2021/01/05 05:04:39;;;;;;;14.20;11.97;;;3.20;87.10;;;;;;5027299;28;20627;-89
2021/01/05 05:07:45;;;;;;;14.27;11.57;;;3.30;87.20;;;;;;5036909;28;20232;-88
2021/01/05 05:10:21;;;;;;;16.07;12.40;;;3.20;87.60;;;;;;5044733;28;20224;-88
2021/01/05 05:12:55;;;;;;;14.97;11.47;;;3.30;86.70;;;;;;5045586;28;20165;-88
2021/01/05 05:15:30;;;;;;;11.73;10.53;;;3.10;87.70;;;;;;5045059;28;20335;-88
2021/01/05 05:18:02;;;;;;;13.40;11.83;;;3.20;88.00;;;;;;5044905;28;20192;-89
2021/01/05 05:20:52;;;;;;;13.40;10.37;;;3.20;87.80;;;;;;5044608;28;20208;-89
2021/01/05 05:23:24;;;;;;;13.67;11.60;;;3.30;87.90;;;;;;5043726;28;20191;-90
2021/01/05 05:26:00;;;;;;;14.60;11.37;;;3.20;87.70;;;;;;5044547;28;20228;-89
2021/01/05 05:28:32;;;;;;;13.13;11.17;;;3.20;87.40;;;;;;5045137;28;20543;-89
2021/01/05 05:31:00;;;;;;;14.90;12.47;;;3.30;87.00;;;;;;5043723;28;20207;-88
2021/01/05 05:33:36;;;;;;;13.13;10.57;;;3.30;87.60;;;;;;5043913;28;20633;-89
2021/01/05 05:36:26;;;;;;;11.87;10.67;;;3.30;87.80;;;;;;5044514;28;20180;-89
2021/01/05 05:38:55;;;;;;;12.50;10.77;;;3.30;87.80;;;;;;5044702;28;20165;-89
2021/01/05 05:41:26;;;;;;;13.77;11.50;;;3.30;87.60;;;;;;5044529;28;20244;-89
2021/01/05 05:44:19;;;;;;;12.87;11.57;;;3.30;87.00;;;;;;5044522;28;20177;-89
2021/01/05 05:46:58;;;;;;;11.77;9.57;;;3.30;87.40;;;;;;5043845;28;20338;-89
2021/01/05 05:49:46;;;;;;;12.63;9.73;;;3.30;87.90;;;;;;5044047;28;20165;-89
2021/01/05 05:52:44;;;;;;;12.33;10.60;;;3.20;88.10;;;;;;5022042;28;20181;-88
2021/01/05 05:55:47;;;;;;;11.67;10.37;;;3.30;88.10;;;;;;5006676;28;20652;-89
2021/01/05 05:58:16;;;;;;;13.03;11.27;;;3.30;88.70;;;;;;5023769;28;20659;-89
2021/01/05 06:00:54;;;;;;;13.03;10.53;;;3.30;89.00;;;;;;5007245;28;20194;-89
2021/01/05 06:03:22;;;;;;;14.23;12.17;;;3.30;89.00;;;;;;5006868;28;20541;-89
2021/01/05 06:05:48;;;;;;;13.43;12.00;;;3.30;88.80;;;;;;5006116;28;20182;-88
2021/01/05 06:08:16;;;;;;;12.87;11.13;;;3.20;89.30;;;;;;5005057;28;20224;-88
2021/01/05 06:10:42;;;;;;;12.43;10.43;;;3.20;89.60;;;;;;5022962;28;20233;-89
2021/01/05 06:13:08;;;;;;;12.60;10.33;;;3.20;89.50;;;;;;5024865;28;20205;-89
2021/01/05 06:15:34;;;;;;;13.70;11.00;;;3.20;89.60;;;;;;5024298;28;20186;-88
2021/01/05 06:18:02;;;;;;;13.53;11.73;;;3.10;90.20;;;;;;5024011;28;20178;-88
2021/01/05 06:20:27;;;;;;;12.83;10.87;;;3.00;90.40;;;;;;5023483;28;20209;-89
2021/01/05 06:22:54;;;;;;;13.97;11.30;;;2.90;91.40;;;;;;5023626;28;20182;-89
2021/01/05 06:25:21;;;;;;;13.10;10.77;;;3.00;90.50;;;;;;5007845;28;20184;-89
2021/01/05 06:27:46;;;;;;;12.40;10.97;;;3.00;90.40;;;;;;5024064;28;20201;-90
2021/01/05 06:30:13;;;;;;;14.57;11.17;;;3.00;90.80;;;;;;5023679;28;20228;-90
2021/01/05 06:32:39;;;;;;;13.23;10.57;;;3.00;90.80;;;;;;5023211;28;20261;-90
2021/01/05 06:35:06;;;;;;;13.07;11.63;;;3.20;89.80;;;;;;5026857;28;20237;-89
2021/01/05 06:37:32;;;;;;;12.93;10.80;;;3.30;89.20;;;;;;5008185;28;20269;-90
2021/01/05 06:39:58;;;;;;;12.73;11.40;;;3.30;89.30;;;;;;5023851;28;20553;-89
2021/01/05 06:42:24;;;;;;;12.40;10.77;;;3.30;88.80;;;;;;5006787;28;20196;-90
2021/01/05 06:44:49;;;;;;;14.30;12.13;;;3.30;89.30;;;;;;5025321;28;20223;-90
2021/01/05 06:47:15;;;;;;;13.07;10.93;;;3.40;89.40;;;;;;5007466;28;20213;-90
2021/01/05 06:49:42;;;;;;;13.00;11.57;;;3.40;89.00;;;;;;5024244;28;20184;-89
2021/01/05 06:52:08;;;;;;;13.43;10.53;;;3.30;88.90;;;;;;5026603;28;20189;-90
2021/01/05 06:54:34;;;;;;;13.23;10.17;;;3.30;88.80;;;;;;5039921;28;20178;-90
2021/01/05 06:57:00;;;;;;;12.90;11.10;;;3.30;88.70;;;;;;5024668;28;20619;-90
2021/01/05 06:59:27;;;;;;;13.83;11.27;;;3.10;89.20;;;;;;5024693;28;20190;-90
2021/01/05 07:01:55;;;;;;;12.87;10.93;;;3.20;89.40;;;;;;5039829;28;20312;-90
2021/01/05 07:04:21;;;;;;;12.43;9.47;;;3.20;89.80;;;;;;5045659;28;20177;-90
2021/01/05 07:06:47;;;;;;;12.07;10.20;;;3.30;90.00;;;;;;5044777;28;20207;-90
2021/01/05 07:09:15;;;;;;;12.20;10.90;;;3.30;89.80;;;;;;5044420;28;20180;-90
2021/01/05 07:11:41;;;;;;;14.10;11.27;;;3.30;90.20;;;;;;5026076;28;20215;-90
2021/01/05 07:14:07;;;;;;;14.63;10.70;;;3.10;90.60;;;;;;5042900;28;20521;-89
2021/01/05 07:16:33;;;;;;;12.27;10.20;;;3.20;90.50;;;;;;5044225;28;20184;-90
2021/01/05 07:18:59;;;;;;;11.80;10.57;;;3.20;89.80;;;;;;5044731;28;20181;-90
2021/01/05 07:21:24;;;;;;;13.37;9.93;;;3.20;89.60;;;;;;5026032;28;20208;-90
2021/01/05 07:23:51;;;;;;;11.93;10.40;;;3.30;89.50;;;;;;5044578;28;20193;-90
2021/01/05 07:26:17;;;;;;;11.53;10.30;;;3.40;89.20;;;;;;5043161;28;20181;-90
2021/01/05 07:28:43;;;;;;;11.63;10.10;;;3.40;89.10;;;;;;5043977;28;20377;-90
2021/01/05 07:31:09;;;;;;;11.13;9.93;;;3.30;89.50;;;;;;5043691;28;20220;-90
2021/01/05 07:33:35;;;;;;;11.37;10.10;;;3.30;90.00;;;;;;5044429;28;20192;-90
2021/01/05 07:36:13;;;;;;;13.47;11.07;;;3.40;89.60;;;;;;5044218;28;20177;-90
2021/01/05 07:38:39;;;;;;;12.80;11.20;;;3.40;88.80;;;;;;5043108;28;20211;-90
2021/01/05 07:41:04;;;;;;;12.47;10.53;;;3.40;88.90;;;;;;5040150;28;20212;-90
2021/01/05 07:43:30;;;;;;;12.07;10.77;;;3.40;89.20;;;;;;5041725;28;20187;-90
2021/01/05 07:45:56;;;;;;;12.07;10.53;;;3.40;89.00;;;;;;5042306;28;20181;-89
2021/01/05 07:48:22;;;;;;;11.17;9.97;;;3.40;89.30;;;;;;5041821;28;20231;-90
2021/01/05 07:50:47;;;;;;;11.47;10.10;;;3.30;89.70;;;;;;5040631;28;20212;-90
2021/01/05 07:53:13;;;;;;;11.30;9.90;;;3.30;90.20;;;;;;5041847;28;20194;-90
2021/01/05 07:55:39;;;;;;;13.97;11.50;;;3.20;90.30;;;;;;5042589;28;20185;-90
2021/01/05 07:58:05;;;;;;;16.00;13.43;;;3.20;90.10;;;;;;5041781;28;20216;-90
2021/01/05 08:00:32;;;;;;;15.07;10.63;;;3.20;90.40;;;;;;5041574;28;20220;-89
2021/01/05 08:02:57;;;;;;;16.93;13.23;;;3.20;90.10;;;;;;5043215;28;20191;-89
2021/01/05 08:05:28;;;;;;;26.03;20.77;;;3.20;90.40;;;;;;5043753;28;20238;-90
2021/01/05 08:07:55;;;;;;;20.37;16.17;;;3.20;89.80;;;;;;5041895;28;20208;-89
2021/01/05 08:10:26;;;;;;;18.30;15.53;;;3.20;90.30;;;;;;5042075;28;20200;-90
2021/01/05 08:12:52;;;;;;;14.67;12.37;;;3.20;90.10;;;;;;5023943;28;20173;-89
2021/01/05 08:15:21;;;;;;;16.30;13.23;;;3.20;90.30;;;;;;5043568;28;20177;-89
2021/01/05 08:17:48;;;;;;;17.10;13.53;;;3.10;90.50;;;;;;5042030;28;20181;-90
2021/01/05 08:20:17;;;;;;;20.53;18.47;;;3.10;90.10;;;;;;5043072;28;20261;-91
2021/01/05 08:22:45;;;;;;;13.50;11.77;;;3.10;91.10;;;;;;5045611;28;20191;-90
2021/01/05 08:25:11;;;;;;;13.33;11.53;;;3.10;91.20;;;;;;5048269;28;20497;-89
2021/01/05 08:27:36;;;;;;;13.87;12.30;;;3.10;90.30;;;;;;5044144;28;20200;-89
2021/01/05 08:30:04;;;;;;;13.80;11.50;;;3.10;90.30;;;;;;5027732;28;20209;-90
2021/01/05 08:32:30;;;;;;;13.17;11.77;;;3.10;90.80;;;;;;5028940;28;20181;-89
2021/01/05 08:34:56;;;;;;;13.97;12.47;;;3.10;90.40;;;;;;5044837;28;20236;-89
2021/01/05 08:37:21;;;;;;;12.27;10.80;;;3.10;90.60;;;;;;5045943;28;20185;-89
2021/01/05 08:39:48;;;;;;;15.67;12.10;;;3.10;90.60;;;;;;5044617;28;20197;-89
2021/01/05 08:42:13;;;;;;;13.97;11.57;;;3.10;90.50;;;;;;5045232;28;20202;-89
2021/01/05 08:44:39;;;;;;;13.00;11.60;;;3.10;90.10;;;;;;5044583;28;20268;-89
2021/01/05 08:47:05;;;;;;;14.43;11.37;;;3.10;90.10;;;;;;5045603;28;20225;-89
2021/01/05 08:49:32;;;;;;;13.17;11.73;;;3.10;90.80;;;;;;5045657;28;20560;-89
2021/01/05 08:51:58;;;;;;;13.10;10.83;;;3.10;90.70;;;;;;5045816;28;20213;-90
2021/01/05 08:54:25;;;;;;;14.50;12.37;;;3.10;90.80;;;;;;5045401;28;20217;-89
2021/01/05 08:56:56;;;;;;;12.80;11.20;;;3.00;90.60;;;;;;5045394;28;20237;-90
2021/01/05 08:59:22;;;;;;;12.97;10.97;;;3.00;90.70;;;;;;5027324;28;20216;-90
2021/01/05 09:01:49;;;;;;;13.50;10.93;;;3.00;91.10;;;;;;5041642;28;20206;-90
2021/01/05 09:04:14;;;;;;;13.60;12.17;;;3.00;91.70;;;;;;5025838;28;20638;-90
2021/01/05 09:06:40;;;;;;;14.33;11.90;;;3.00;91.40;;;;;;5025308;28;20213;-90
2021/01/05 09:09:06;;;;;;;14.97;12.73;;;3.00;91.00;;;;;;5041770;28;20186;-90
2021/01/05 09:11:32;;;;;;;13.60;12.20;;;3.00;90.70;;;;;;5006973;28;20664;-90
2021/01/05 09:14:00;;;;;;;17.30;11.97;;;3.00;91.20;;;;;;5027153;28;20193;-90
2021/01/05 09:16:29;;;;;;;14.40;11.33;;;2.90;91.60;;;;;;5027428;28;20284;-91
2021/01/05 09:18:56;;;;;;;15.50;12.97;;;3.00;91.80;;;;;;5027167;28;20235;-91
2021/01/05 09:21:24;;;;;;;12.60;11.07;;;2.90;92.00;;;;;;5044837;28;20296;-91
2021/01/05 09:23:52;;;;;;;12.57;11.27;;;2.90;92.50;;;;;;5047371;28;20169;-90
2021/01/05 09:26:20;;;;;;;16.70;12.90;;;3.00;91.50;;;;;;5081176;22;20287;-86
2021/01/05 09:28:46;;;;;;;14.17;11.60;;;3.00;90.90;;;;;;5026964;28;20273;-87
2021/01/05 09:31:12;;;;;;;18.43;12.97;;;2.90;91.20;;;;;;5028706;28;20174;-86
2021/01/05 09:33:37;;;;;;;16.90;11.33;;;3.10;90.80;;;;;;5026171;28;20182;-86
2021/01/05 09:36:04;;;;;;;14.27;12.77;;;3.10;90.70;;;;;;5030787;28;20268;-87
2021/01/05 09:38:29;;;;;;;16.33;12.37;;;3.20;89.50;;;;;;5020397;28;20557;-87
2021/01/05 09:40:55;;;;;;;13.93;11.00;;;3.10;89.60;;;;;;5019499;28;20317;-87
2021/01/05 09:43:21;;;;;;;13.57;11.27;;;3.20;89.30;;;;;;5038804;28;20204;-87
2021/01/05 09:45:46;;;;;;;12.47;10.70;;;3.10;90.20;;;;;;5024127;28;20202;-87
2021/01/05 09:48:14;;;;;;;13.03;11.63;;;3.20;89.90;;;;;;5023304;28;20214;-89
2021/01/05 09:50:42;;;;;;;13.93;11.10;;;3.30;89.50;;;;;;5024171;28;20241;-88
2021/01/05 09:53:09;;;;;;;13.77;12.07;;;3.30;89.50;;;;;;5022677;28;20186;-89
2021/01/05 09:55:35;;;;;;;14.77;11.20;;;3.20;89.00;;;;;;5025025;28;20221;-88
2021/01/05 09:58:01;;;;;;;13.70;11.77;;;3.20;89.30;;;;;;5007916;28;20199;-88
2021/01/05 10:00:27;;;;;;;12.83;11.40;;;3.10;89.70;;;;;;5021710;28;20208;-87
2021/01/05 10:02:53;;;;;;;26.80;22.57;;;3.10;90.50;;;;;;5021396;28;20653;-88
2021/01/05 10:05:19;;;;;;;71.10;38.63;;;3.30;89.70;;;;;;5022404;28;20235;-88
2021/01/05 10:07:46;;;;;;;45.40;25.53;;;3.40;89.30;;;;;;5023764;28;20252;-88
2021/01/05 10:10:21;;;;;;;29.97;18.07;;;3.50;88.60;;;;;;5023370;28;20224;-87
2021/01/05 10:12:47;;;;;;;122.17;63.53;;;3.40;88.40;;;;;;5024971;28;20177;-87
2021/01/05 10:15:14;;;;;;;22.37;15.10;;;3.40;88.60;;;;;;5025399;28;20227;-87
2021/01/05 10:17:40;;;;;;;18.53;15.63;;;3.40;88.70;;;;;;5003801;28;20193;-88
2021/01/05 10:20:07;;;;;;;17.97;16.10;;;3.40;89.40;;;;;;5022971;28;20190;-88
2021/01/05 10:22:33;;;;;;;15.83;13.53;;;3.40;89.20;;;;;;5021894;28;20216;-88
2021/01/05 10:24:59;;;;;;;18.37;16.33;;;3.40;89.70;;;;;;5020029;28;20217;-88
2021/01/05 10:27:25;;;;;;;15.97;14.27;;;3.40;89.90;;;;;;5024374;28;20210;-90
2021/01/05 10:29:52;;;;;;;17.83;15.73;;;3.40;90.00;;;;;;5021816;28;20178;-89
2021/01/05 10:32:18;;;;;;;16.50;14.70;;;3.30;91.10;;;;;;5017639;28;20269;-89
2021/01/05 10:34:44;;;;;;;21.37;19.07;;;3.40;90.90;;;;;;4988571;28;20206;-89
2021/01/05 10:37:10;;;;;;;22.23;19.30;;;3.30;91.30;;;;;;4979758;28;20182;-89
2021/01/05 10:39:36;;;;;;;20.73;17.47;;;3.40;91.00;;;;;;5021713;28;20186;-88
2021/01/05 10:42:03;;;;;;;15.67;13.97;;;3.40;91.80;;;;;;4983332;28;20190;-88
2021/01/05 10:44:29;;;;;;;19.33;16.17;;;3.40;91.00;;;;;;5021170;28;20288;-88
2021/01/05 10:47:04;;;;;;;18.50;15.60;;;3.30;91.40;;;;;;5022837;28;20205;-89
2021/01/05 10:49:30;;;;;;;16.37;13.80;;;3.30;91.30;;;;;;5021270;28;20260;-88
2021/01/05 10:51:58;;;;;;;32.40;26.63;;;3.30;91.80;;;;;;5020290;28;20194;-88
2021/01/05 10:54:26;;;;;;;23.17;18.57;;;3.30;92.00;;;;;;5021825;28;20197;-88
2021/01/05 10:57:01;;;;;;;15.83;13.53;;;3.30;91.70;;;;;;5005301;28;20217;-88
2021/01/05 10:59:27;;;;;;;24.80;18.90;;;3.30;91.60;;;;;;5003916;28;20181;-87
2021/01/05 11:01:56;;;;;;;16.37;13.87;;;3.30;91.80;;;;;;5022756;28;20556;-88
2021/01/05 11:04:25;;;;;;;15.07;12.40;;;3.40;92.20;;;;;;5021160;28;20257;-89
2021/01/05 11:06:59;;;;;;;54.17;35.00;;;3.40;92.20;;;;;;5005268;28;20312;-88
2021/01/05 11:09:26;;;;;;;22.37;16.40;;;3.50;92.70;;;;;;5022961;28;20194;-89
2021/01/05 11:12:00;;;;;;;16.70;13.87;;;3.40;92.30;;;;;;5021321;28;20193;-89
2021/01/05 11:14:26;;;;;;;17.10;13.83;;;3.40;92.00;;;;;;5022383;28;20184;-89
2021/01/05 11:16:52;;;;;;;28.17;23.03;;;3.40;92.40;;;;;;5022423;28;20208;-89
2021/01/05 11:19:18;;;;;;;17.93;16.03;;;3.50;91.90;;;;;;5021838;28;20186;-89
2021/01/05 11:21:54;;;;;;;13.63;12.17;;;3.40;91.50;;;;;;5022658;28;20181;-89
2021/01/05 11:24:20;;;;;;;14.83;12.87;;;3.50;92.20;;;;;;5022156;28;20185;-89
2021/01/05 11:26:47;;;;;;;15.13;12.07;;;3.40;92.60;;;;;;5017982;28;20222;-89
2021/01/05 11:29:13;;;;;;;18.27;15.67;;;3.50;90.30;;;;;;5010033;28;20213;-89
2021/01/05 11:31:39;;;;;;;17.63;15.20;;;3.40;91.00;;;;;;5025834;28;20189;-87
2021/01/05 11:34:05;;;;;;;17.60;14.57;;;3.40;91.10;;;;;;5023067;28;20196;-89
2021/01/05 11:36:31;;;;;;;21.97;19.67;;;3.30;92.00;;;;;;4988471;28;20208;-88
2021/01/05 11:38:58;;;;;;;21.83;19.00;;;3.30;92.10;;;;;;5021371;28;20217;-88
2021/01/05 11:41:33;;;;;;;19.37;17.30;;;3.40;92.10;;;;;;5004870;28;20185;-89
2021/01/05 11:44:00;;;;;;;19.80;17.20;;;3.40;92.10;;;;;;5022300;28;20179;-88
2021/01/05 11:46:26;;;;;;;19.07;16.33;;;3.40;92.20;;;;;;5021079;28;20209;-88
2021/01/05 11:48:53;;;;;;;16.73;13.67;;;3.40;92.50;;;;;;5021876;28;20201;-88
2021/01/05 11:51:25;;;;;;;17.73;14.93;;;3.30;93.80;;;;;;5001115;28;20623;-88
2021/01/05 11:53:51;;;;;;;16.60;14.13;;;3.40;93.80;;;;;;5007877;28;20190;-88
2021/01/05 11:56:28;;;;;;;15.70;13.20;;;3.60;94.00;;;;;;5013643;28;20218;-88
2021/01/05 11:58:53;;;;;;;27.13;23.57;;;3.60;92.30;;;;;;5021624;28;20265;-88
2021/01/05 12:01:20;;;;;;;15.93;13.77;;;3.60;91.50;;;;;;5020871;28;20634;-88
2021/01/05 12:03:45;;;;;;;14.47;12.30;;;3.40;92.60;;;;;;5021760;28;20599;-89
2021/01/05 12:06:17;;;;;;;24.63;18.10;;;3.40;94.40;;;;;;5020927;28;20256;-88
2021/01/05 12:08:43;;;;;;;47.77;37.60;;;3.50;93.60;;;;;;5014894;28;20552;-88
2021/01/05 12:11:15;;;;;;;23.10;20.60;;;3.60;92.50;;;;;;5004169;28;20295;-88
2021/01/05 12:13:41;;;;;;;19.53;16.40;;;3.60;91.70;;;;;;5021940;28;20201;-88
2021/01/05 12:16:06;;;;;;;18.97;16.20;;;3.50;92.60;;;;;;5020124;28;20230;-88
2021/01/05 12:18:32;;;;;;;18.03;14.40;;;3.60;91.80;;;;;;5020802;28;20193;-89
2021/01/05 12:20:57;;;;;;;13.87;12.37;;;3.60;90.80;;;;;;5021779;28;20276;-88
2021/01/05 12:23:23;;;;;;;13.50;11.93;;;3.50;92.10;;;;;;5021542;28;20585;-88
2021/01/05 12:25:49;;;;;;;14.87;11.67;;;3.40;93.50;;;;;;5003194;28;20213;-88
2021/01/05 12:28:15;;;;;;;14.50;12.20;;;3.40;93.80;;;;;;5003575;28;20590;-88
2021/01/05 12:30:41;;;;;;;15.50;13.43;;;3.60;93.00;;;;;;5021386;28;20178;-88
2021/01/05 12:33:08;;;;;;;12.70;11.37;;;3.60;93.00;;;;;;4997212;28;20243;-87
2021/01/05 12:35:34;;;;;;;13.77;11.80;;;3.40;93.50;;;;;;5020612;28;20193;-88
2021/01/05 12:38:00;;;;;;;14.53;11.77;;;3.60;93.30;;;;;;5001706;28;20213;-88
2021/01/05 12:40:25;;;;;;;15.10;12.63;;;3.60;93.20;;;;;;5019276;28;20178;-88
2021/01/05 12:42:51;;;;;;;12.87;11.07;;;3.60;93.10;;;;;;5019615;28;20182;-88
2021/01/05 12:45:17;;;;;;;13.33;11.80;;;3.70;92.20;;;;;;5003758;28;20212;-88
2021/01/05 12:47:43;;;;;;;14.37;11.80;;;3.80;91.40;;;;;;5023526;28;20209;-87
2021/01/05 12:50:09;;;;;;;13.00;11.23;;;3.80;91.10;;;;;;5021457;28;20182;-88
2021/01/05 12:52:36;;;;;;;13.20;11.80;;;3.80;90.30;;;;;;5011195;28;20196;-88